Ride Results

Manilla Westpac Rescue Helicopter Ride (12-09-2010)
Ride distance: 80.0 km

Outcomes - Manilla Westpac Rescue Helicopter Ride (12-09-2010)
Division No. of Entries Retired / DNE Completed Withdrawn Ineligible V/O Percentage Completed
HW 22 - 18 3 - 1 81.82%
MW 24 - 18 2 - 4 75.00%
LW 10 - 10 - - - 100.00%
JN 3 - 3 - - - 100.00%
Totals 59 - 49 5 - 5 83.05%
Results - Manilla Westpac Rescue Helicopter Ride (12-09-2010)
No. Rider Horse Place Time Leg Speeds Total
Km/Hr
H/R bpm
Heavyweight
5 Mark Cameron Danjera Hashman 1 5:14:00 15.5, 14.9 15.29 31, 46, 44 (Avg:45)
22 Blake Freeman Jalustre 1 (BC) 5:14:00 15.4, 15.0 15.29 34, 44, 48 (Avg:46)
39 Roy Barsby Dumaresque Montgomery 3 5:22:00 14.1, 15.7 14.91 39, 40, 47 (Avg:43)
56 Allan Caslick A'Landell Lieutenant 4 5:42:00 14.2, 13.8 14.04 38, 44, 47 (Avg:45)
25 Phil Coleman Alnotarj Statistic 5 6:32:00 12.3, 12.1 12.24 37, 40, 42 (Avg:41)
3 Marylou Locke Ally 5 6:32:00 12.3, 12.1 12.24 33, 38, 46 (Avg:42)
35 Rod Mitchell Aloha Naja 7 6:35:00 12.7, 11.5 12.15 28, 40, 40 (Avg:40)
18 Marita Rifai A'Landell Spirit 8 6:58:00 12.3, 10.7 11.48 33, 44, 44 (Avg:44)
1 Kym Hagon Diamond R Elmo 9 7:23:00 11.2, 10.4 10.84 32, 42, 47 (Avg:44)
55 Dallas Blakely Karabil Alleena 10 7:34:00 11.9, 9.4 10.57 35, 43, 44 (Avg:43)
27 Terry McMurrrich Amir Jasara 11 7:38:00 11.4, 9.6 10.48 35, 46, 46 (Avg:46)
58 Stuart Hitchcock Ralvon Courier 12 7:51:00 10.1, 10.2 10.19 34, 40, 52 (Avg:46)
41 Keith Nagle Elrebel Afternoon Delight 13 7:52:00 10.9, 9.4 10.17 38, 40, 46 (Avg:43)
36 Craig Smith Sweetie 14 7:53:00 11.0, 9.4 10.15 38, 44, 54 (Avg:49)
51 Damien Bonham Box Hill Bullzeye 15 7:56:00 11.3, 9.0 10.08 28, 49, 60 (Avg:54)
9 Jennifer Hargraves Ejen Park Summer Tango 16 7:57:00 9.6, 10.4 10.06 40, 55, 54 (Avg:54)
33 Paul Cutcliff Harmere Amira 17 8:17:00 9.4, 9.8 9.66 35, 40, 43 (Avg:41)
14 Michael Boland Rosebrae Alladin 18 8:25:00 8.7, 10.3 9.50 40, 41, 56 (Avg:48)
53 Kristy Waddell Box Hill Rain Lover Lame L2 0:00:00 11.3, 9.0 - 32, 52, 52 (Avg:52)
19 Steve Brooks Harmere Lahsa Withdrawn L1 0:00:00 - - 39, 41 (Avg:41)
10 Susan Luthy Eljannah Majid Withdrawn L1 0:00:00 - - 34, 44 (Avg:44)
47 Peter Terrill Aloha Banjo Withdrawn L1 0:00:00 - - 38, 39 (Avg:39)
Middleweight
13 Jennifer Gilbertson Webbs Creek Walkabout 1 (BC) 5:12:00 15.3, 15.3 15.38 36, 41, 46 (Avg:43)
37 David Player Ryton Pipes of Peace 2 5:22:00 15.5, 14.2 14.91 32, 40, 48 (Avg:44)
15 Graham Stockdale Noble Navaar Blakes Crystal Icon 3 5:35:00 15.0, 13.6 14.33 32, 41, 47 (Avg:44)
28 Raymond Griffiths Ginger Megs 4 5:42:00 14.2, 13.8 14.04 39, 44, 48 (Avg:46)
7 Renee Kirk Palio 5 5:48:00 14.2, 13.4 13.79 34, 44, 48 (Avg:46)
50 Melissa Attwell McDonald Park Focus 6 6:12:00 14.4, 11.6 12.90 43, 53, 52 (Avg:52)
49 Neroli Mitchell- Cooper Bilbo 6 6:12:00 14.4, 11.6 12.90 32, 48, 46 (Avg:47)
23 Courtney Anderson Nicari Zadah 8 6:14:00 13.3, 12.3 12.83 35, 48, 51 (Avg:49)
4 Sheree Gray Happy Joseph 9 6:50:00 12.3, 11.1 11.71 40, 50, 52 (Avg:51)
34. Judith Burton Woodbourne Bikini 10 6:58:00 11.4, 11.5 11.48 36, 40, 40 (Avg:40)
24 Peter Kelly Ramalea Laila 10 6:58:00 12.1, 10.8 11.48 34, 40, 38 (Avg:39)
38 Fiona Meller Keldon Park Sophena 12 7:23:00 11.9, 9.9 10.84 37, 52, 48 (Avg:50)
6 Adam Kirk Garnee Torque 13 7:36:00 11.0, 10.0 10.53 37, 46, 48 (Avg:47)
57 April Bonham Lyndrian Genesis 14 7:51:00 10.1, 10.2 10.19 40, 42, 47 (Avg:44)
42 Jennifer Rogers Tristram Hero 15 7:52:00 10.9, 9.4 10.17 38, 44, 42 (Avg:43)
45 Sonya Ardill Splitters Creek Rosie 16 7:54:00 10.1, 10.1 10.13 36, 42, 45 (Avg:43)
32 Marina Adair Tranquility Mako 17 7:57:00 9.6, 10.4 10.06 48, 48, 52 (Avg:50)
11 Margaret Boland Rosebrae Apollo 18 8:25:00 8.7, 10.3 9.50 38, 52, 52 (Avg:52)
30 Mathew Broome Harrison SG Lame L2 0:00:00 10.9, 10.3 - 40, 42, 49 (Avg:45)
21 Sandi Brown Ithilien Elendelle Lame L2 0:00:00 8.7, 10.3 - 29, 40, 39 (Avg:39)
40 Dean Walkom Santa Pasa Zaraq Lame L2 0:00:00 15.9, 12.9 - 31, 46, 48 (Avg:47)
52 Sonia Bonham Box Hill Diva Withdrawn L1 0:00:00 - - 33, 52 (Avg:52)
46 Brad Dillon Ebonglen Holmegaard Heart Rate L1 0:00:00 15.3 - 33, 56 (Avg:56)
54 Leisa Neal Razorback Fire Wing Withdrawn L1 0:00:00 - - 40, 48 (Avg:48)
Lightweight
12 Janine Warner Webbs Creek Rising Fast 1 (BC) 5:12:00 15.3, 15.3 15.38 24, 46, 48 (Avg:47)
59 Carol Layton Omani City Smoke 2 6:33:00 12.3, 12.0 12.21 36, 40, 42 (Avg:41)
31 Liesl Baumann Skeeter 3 6:58:00 11.9, 11.0 11.48 38, 42, 37 (Avg:39)
20 Julie Brooks Aloha Byshara 4 7:23:00 11.8, 9.9 10.84 35, 42, 45 (Avg:43)
29 Emma Broome Fazah Rebelex 5 7:30:00 10.9, 10.3 10.67 40, 44, 55 (Avg:49)
48 Karen Anderson Jubalani Jasper 6 7:34:00 12.3, 9.2 10.57 41, 48, 48 (Avg:48)
26 Abby McMurrich Nyora Veleta 7 7:37:00 11.4, 9.6 10.50 35, 45, 52 (Avg:48)
2 Jessica Taylor Diamond R Amaya 8 7:54:00 10.1, 10.1 10.13 30, 52, 49 (Avg:50)
17 Wendy Jones Nioka Park Jag 9 8:39:00 9.0, 9.4 9.25 36, 39, 42 (Avg:40)
16 Allix Jones Clovelly Park Samson 9 8:39:00 9.0, 9.4 9.25 41, 48, 48 (Avg:48)
Junior
8 Jasmine Shields Woodbourne Betty 1 (BC) 5:12:00 15.4, 15.2 15.38 32, 44, 47 (Avg:45)
43 Mia Bodewes Leshal Asrahk 2 8:11:00 9.6, 9.9 9.78 35, 42, 56 (Avg:49)
44 Ronnie Thomson Megsy 2 8:11:00 9.6, 9.9 9.78 40, 50, 57 (Avg:53)